< < Back
Terminal Aerodrome Forecast


Current Version              Previous Versions:   1  2  3  4  5  6  7  8  9  

Terminal Aerodrome Forecast

452
FTUS42 KCAE 191600 AAC
TAFCAE
TAF AMD
KCAE 191602Z 1916/2012 04006KT P6SM VCSH BKN035
     FM200000 07004KT P6SM SCT050
     FM200900 06005KT P6SM BKN012=



Latest METAR

197
SAUS80 KWBC 200200 CCA
MTRCAE
METAR KCAE 200156Z 07003KT 10SM SCT200 22/18 A3014 RMK AO2 SLP202
T02220183


USA.gov is the U.S. government's official web portal to all federal, state and local government web resources and services.